Peter Watson

Olheiro - Liverpool
23 Out 2027
Sábado
Processo

Personalidade

Adaptabilidade (15) Ambição (13) Controvérsia (15) Lealdade (6) Pressão (9) Profissionalismo (1) Espírito Esportivo (16) Temperamento (4)

Perfil

Estilo de Treinamento Democrático
Licença Continental B
Determinação 13
Gestão de Pessoas 17
Motivação 9
Disciplina 14
Satisfação no Trabalho
100%
Fadiga
0%
Função Olheiro
Salário 85.2K p/s
Contrato 14.03.2030

Desempenho

Comportamento Bom
Eficácia do Treinamento
60%
Desenvolvimento do Jogador
45%
Prevenção de Lesões
35%
Implementação Tática
75%

Eventos Recentes

Participou de uma reunião de recrutamento 7d atrás
Participou de uma reunião de recrutamento 14d atrás
Participou de uma reunião de recrutamento 21d atrás
Participou de uma reunião de recrutamento 28d atrás
Participou de uma reunião de recrutamento 35d atrás
Participou de uma reunião de recrutamento 42d atrás
Participou de uma reunião de recrutamento 49d atrás
Participou de uma reunião de recrutamento 56d atrás

Monitorando agora

74
Jogador Clube Status Habilidade Confiança Observado Última observação Último voto
Kevin Fulham Relatório pronto 150 / 155 86% 1 02.06.2027 -
Lucas Bergvall Tottenham Ativo 148 / 144 40% 7 01.06.2027 -
Ayden Heaven Sheffield Wednesday Negociando 137 / 156 40% 1 01.06.2027 -
Thiago Silvero Sevilla Ativo 122 / 128 40% 1 01.06.2027 -
Christian Pulisic AC Milan Ativo 167 / 160 40% 1 31.05.2027 -
Lautaro Martínez Inter Ativo 174 / 165 40% 1 31.05.2027 -
Giorgi Mamardashvili Sunderland Ativo 160 / 170 40% 1 30.05.2027 -
Jorrel Hato Chelsea Ativo 147 / 150 40% 9 28.05.2027 -
Valentin Atangana Al-Ahli Ativo 132 / 130 40% 5 28.05.2027 -
Ollie Scarles Chelsea Ativo 130 / 142 40% 6 28.05.2027 -
Christos Mouzakitis Hull City Ativo 131 / 133 40% 7 27.05.2027 -
Caleb Yirenkyi Coventry City Ativo 132 / 142 40% 5 23.05.2027 -
Lucas Høgsberg Paris Saint-Germain Ativo 137 / 146 40% 5 22.05.2027 -
Matvey Kislyak Lokomotiv Moscow Ativo 134 / 152 40% 4 21.05.2027 -
Mauricio Amaro Atlanta United FC Ativo 123 / 129 40% 1 19.05.2027 -
Joane Gadou Köln Ativo 126 / 128 40% 1 15.05.2027 -
Luka Vušković Tottenham Ativo 141 / 151 40% 3 11.05.2027 -
Riyad Idrissi Torino Ativo 127 / 121 40% 7 09.05.2027 -
Eliás Montiel Atlético Madrid Ativo 129 / 141 40% 6 07.05.2027 -
Davide Bartesaghi AC Milan Ativo 129 / 133 40% 5 25.04.2027 -
Noël Aséko Eintracht Frankfurt Ativo 124 / 136 40% 3 25.04.2027 -
Eivind Helland Bologna Ativo 129 / 136 40% 3 04.04.2027 -
Jack Hinshelwood Brighton Ativo 146 / 147 40% 3 15.03.2027 -
Nico O'Reilly Manchester City Ativo 156 / 156 40% 2 13.03.2027 -
Nicolás Domínguez Nottingham Forest Perdido 144 / 150 83% 1 25.01.2027 -
Khvicha Kvaratskhelia Inter Ativo 165 / 160 40% 1 11.01.2027 -
Gabriel Martinelli Arsenal Ativo 159 / 159 40% 7 26.12.2026 -
Dango Ouattara Brentford Ativo 144 / 136 40% 12 26.12.2026 -
Igor Jesus Nottingham Forest Ativo 140 / 146 40% 7 22.12.2026 -
Jerome Karelse Golden Arrows Ativo 99 / 110 40% 6 21.12.2026 -
George Hirst Stoke City Ativo 129 / 132 40% 1 21.12.2026 -
Rodrigo Muniz Fulham Ativo 143 / 144 40% 5 20.12.2026 -
Antoine Semenyo Manchester City Ativo 161 / 167 40% 5 17.12.2026 -
Mohammed Kudus Tottenham Ativo 157 / 147 40% 5 17.12.2026 -
Rumarn Burrell Queens Park Rangers Ativo 124 / 118 40% 4 17.12.2026 -
João Félix Aston Villa Ativo 155 / 156 40% 6 16.12.2026 -
Rayan Cherki Manchester City Ativo 164 / 163 40% 5 13.12.2026 -
Marco Carnesecchi Torino Ativo 152 / 155 40% 13 13.12.2026 -
Nicolas Jackson Aston Villa Ativo 151 / 155 40% 2 06.12.2026 -
El Hadji Malick Diouf Brentford Ativo 144 / 137 40% 4 04.12.2026 -
Noah Sadiki Sunderland Ativo 147 / 148 40% 2 04.12.2026 -
Kenan Yıldız Juventus Ativo 158 / 166 40% 1 04.12.2026 -
Roger Fernandes Al-Ittihad Ativo 133 / 146 40% 2 03.12.2026 -
Othmane Maamma Watford Ativo 119 / 133 40% 1 03.12.2026 -
Lamine Cissé Peterborough United Ativo 126 / 114 40% 1 02.12.2026 -
Wandile Duba Maritzburg United Ativo 107 / 93 40% 1 23.11.2026 -
Chemsdine Talbi Sunderland Ativo 144 / 140 40% 3 02.11.2026 -
Kelvin Yeboah Minnesota United FC Ativo 130 / 127 40% 3 30.10.2026 -
Calvin Harris Sporting Kansas City Ativo 109 / 104 40% 3 20.10.2026 -
Camilo Durán Bloemfontein Celtic Ativo 126 / 123 40% 2 20.10.2026 -
Martín Ojeda Orlando City Ativo 135 / 133 40% 3 18.10.2026 -
Etiosa Ighodaro Kaizer Chiefs Ativo 117 / 107 40% 1 16.10.2026 -
Rico Lewis Manchester City Ativo 152 / 158 40% 2 15.10.2026 -
Liel Abada Charlotte Football Club Ativo 136 / 128 40% 2 13.10.2026 -
Bénie Traoré New York City Ativo 125 / 132 40% 2 12.10.2026 -
Aaron Connolly Ruch Ativo 119 / 107 40% 1 11.10.2026 -
Wessam Abou Ali Columbus Crew Ativo 128 / 124 40% 4 09.10.2026 -
Dejan Joveljić Seattle Sounders Ativo 125 / 121 40% 3 08.10.2026 -
Kai Havertz Arsenal Ativo 158 / 156 40% 3 07.10.2026 -
Luca Langoni New England Revolution Ativo 126 / 122 40% 2 07.10.2026 -
Kévin Denkey FC Cincinnati Ativo 132 / 126 40% 2 06.10.2026 -
Ben Gannon Doak Bournemouth Ativo 140 / 151 40% 1 01.10.2026 -
Duncan McGuire Houston Dynamo Ativo 122 / 114 40% 2 24.09.2026 -
Antoni Milambo Brentford Ativo 137 / 144 40% 1 22.09.2026 -
Jesus Ferreira Seattle Sounders Ativo 130 / 136 40% 1 20.09.2026 -
Rafael Navarro St. Louis CITY SC Ativo 128 / 117 40% 1 19.09.2026 -
Bongokuhle Hlongwane Minnesota United FC Ativo 122 / 129 40% 2 17.09.2026 -
Victor Olatunji Real Salt Lake Ativo 120 / 106 40% 1 17.09.2026 -
Bazoumana Touré Newcastle United Ativo 129 / 150 40% 2 16.09.2026 -
Leonardo Campana New England Revolution Ativo 129 / 125 40% 1 16.09.2026 -
Tomás Chancalay Minnesota United FC Ativo 129 / 120 40% 1 07.09.2026 -
Sindre Walle Egeli Nottingham Forest Ativo 128 / 133 40% 1 31.08.2026 -
Taty Castellanos West Ham United Ativo 145 / 151 40% 1 25.08.2026 -
Ferran Torres Paris Saint-Germain Ativo 161 / 159 40% 1 02.08.2026 -